Vinnitsa, Vinnytsia Havryshivka International Airport (UKWW)

NameVinnytsia Havryshivka International Airport
CityVinnitsa
CountryUkraine
ICAOUKWW
IATAVIN
Altitude294 m
CoordinatesGoogle Map
Live Air TrafficLiveATC.net
METARUKWW 210500Z 30008MPS 9999 OVC012 M01/M04 Q1034 NOSIG
2020-01-21 05:00:00 Wind: West-Northwest (300°) 8 m/s - Visibility: > 10000 m - Temperature: -1 °C - Dew point: -4 °C - Humidity: 80.3% - Pressure: 1034 hPa
Statistics

The table below shows the detailed information of all flights to/from Vinnitsa, Vinnytsia Havryshivka International Airport (UKWW).